createdAt,value
2019-02-14T00:01:14.953Z,-1.00
2019-02-14T00:03:43.521Z,-1.00
2019-02-14T00:06:12.192Z,-1.10
2019-02-14T00:08:41.122Z,-1.10
2019-02-14T00:11:09.786Z,-1.10
2019-02-14T00:13:38.354Z,-1.20
2019-02-14T00:16:07.009Z,-1.20
2019-02-14T00:18:35.588Z,-1.20
2019-02-14T00:21:04.322Z,-1.20
2019-02-14T00:23:32.962Z,-1.20
2019-02-14T00:26:01.530Z,-1.20
2019-02-14T00:28:30.129Z,-1.10
2019-02-14T00:30:58.721Z,-1.10
2019-02-14T00:33:27.466Z,-1.10
2019-02-14T00:35:56.069Z,-1.10
2019-02-14T00:38:24.702Z,-1.20
2019-02-14T00:40:53.433Z,-1.20
2019-02-14T00:43:22.001Z,-1.20
2019-02-14T00:45:50.608Z,-1.20
2019-02-14T00:48:19.234Z,-1.20
2019-02-14T00:50:47.883Z,-1.30
2019-02-14T00:53:16.478Z,-1.30
2019-02-14T00:55:45.045Z,-1.30
2019-02-14T00:58:13.721Z,-1.40
2019-02-14T01:00:45.027Z,-1.40
2019-02-14T01:03:13.757Z,-1.40
2019-02-14T01:05:42.337Z,-1.40
2019-02-14T01:08:10.995Z,-1.40
2019-02-14T01:10:39.568Z,-1.40
2019-02-14T01:13:08.240Z,-1.40
2019-02-14T01:15:37.445Z,-1.30
2019-02-14T01:18:06.005Z,-1.30
2019-02-14T01:20:34.605Z,-1.30
2019-02-14T01:23:13.962Z,-1.30
2019-02-14T01:25:40.694Z,-1.40
2019-02-14T01:28:09.264Z,-1.40
2019-02-14T01:30:37.854Z,-1.40
2019-02-14T01:33:06.429Z,-1.50
2019-02-14T01:35:41.877Z,-1.50
2019-02-14T01:38:05.395Z,-1.40
2019-02-14T01:40:34.024Z,-1.50
2019-02-14T01:43:02.694Z,-1.50
2019-02-14T01:45:31.246Z,-1.50
2019-02-14T01:47:59.919Z,-1.50
2019-02-14T01:50:28.633Z,-1.60
2019-02-14T01:52:57.310Z,-1.60
2019-02-14T01:55:26.008Z,-1.60
2019-02-14T01:57:54.670Z,-1.60
2019-02-14T02:00:23.409Z,-1.60
2019-02-14T02:02:52.010Z,-1.60
2019-02-14T02:05:20.645Z,-1.60
2019-02-14T02:07:49.342Z,-1.60
2019-02-14T02:10:18.002Z,-1.60
2019-02-14T02:12:46.630Z,-1.60
2019-02-14T02:15:15.371Z,-1.60
2019-02-14T02:17:43.934Z,-1.60
2019-02-14T02:20:12.664Z,-1.60
2019-02-14T02:22:41.297Z,-1.60
2019-02-14T02:25:12.950Z,-1.70
2019-02-14T02:27:41.573Z,-1.70
2019-02-14T02:30:15.205Z,-1.70
2019-02-14T02:32:43.765Z,-1.70
2019-02-14T02:35:12.511Z,-1.70
2019-02-14T02:37:41.066Z,-1.70
2019-02-14T02:40:10.065Z,-1.70
2019-02-14T02:42:38.655Z,-1.70
2019-02-14T02:45:10.353Z,-1.70
2019-02-14T02:47:39.012Z,-1.70
2019-02-14T02:50:10.217Z,-1.70
2019-02-14T02:52:38.881Z,-1.70
2019-02-14T02:55:09.792Z,-1.70
2019-02-14T02:57:38.538Z,-1.70
2019-02-14T03:00:13.216Z,-1.70
2019-02-14T03:02:41.873Z,-1.70
2019-02-14T03:05:12.481Z,-1.70
2019-02-14T03:07:41.135Z,-1.70
2019-02-14T03:10:12.341Z,-1.70
2019-02-14T03:12:40.929Z,-1.70
2019-02-14T03:15:14.400Z,-1.60
2019-02-14T03:17:43.112Z,-1.60
2019-02-14T03:20:13.242Z,-1.60
2019-02-14T03:22:41.896Z,-1.60
2019-02-14T03:25:16.153Z,-1.60
2019-02-14T03:27:44.744Z,-1.60
2019-02-14T03:30:15.659Z,-1.60
2019-02-14T03:32:44.323Z,-1.60
2019-02-14T03:35:12.954Z,-1.70
2019-02-14T03:37:41.516Z,-1.70
2019-02-14T03:40:14.804Z,-1.70
2019-02-14T03:42:43.355Z,-1.70
2019-02-14T03:45:15.013Z,-1.80
2019-02-14T03:47:43.646Z,-1.80
2019-02-14T03:50:13.171Z,-1.80
2019-02-14T03:52:41.814Z,-1.80
2019-02-14T03:55:11.460Z,-1.80
2019-02-14T03:57:40.252Z,-1.80
2019-02-14T04:00:16.426Z,-1.80
2019-02-14T04:02:46.934Z,-1.80
2019-02-14T04:05:15.679Z,-1.70
2019-02-14T04:07:44.247Z,-1.70
2019-02-14T04:10:14.089Z,-1.70
2019-02-14T04:12:42.800Z,-1.70
2019-02-14T04:15:13.872Z,-1.70
2019-02-14T04:17:42.539Z,-1.70
2019-02-14T04:20:11.943Z,-1.60
2019-02-14T04:22:40.551Z,-1.60
2019-02-14T04:25:10.158Z,-1.70
2019-02-14T04:27:38.765Z,-1.70
2019-02-14T04:30:12.356Z,-1.70
2019-02-14T04:32:41.025Z,-1.60
2019-02-14T04:35:09.836Z,-1.60
2019-02-14T04:37:38.443Z,-1.50
2019-02-14T04:40:12.583Z,-1.50
2019-02-14T04:42:41.252Z,-1.50
2019-02-14T04:45:12.179Z,-1.50
2019-02-14T04:47:40.949Z,-1.50
2019-02-14T04:50:11.397Z,-1.50
2019-02-14T04:52:40.037Z,-1.50
2019-02-14T04:55:10.583Z,-1.60
2019-02-14T04:57:39.150Z,-1.60
2019-02-14T05:00:10.820Z,-1.60
2019-02-14T05:02:39.474Z,-1.70
2019-02-14T05:05:09.330Z,-1.70
2019-02-14T05:07:37.905Z,-1.70
2019-02-14T05:10:11.667Z,-1.80
2019-02-14T05:12:40.330Z,-1.80
2019-02-14T05:15:10.278Z,-1.70
2019-02-14T05:17:38.996Z,-1.70
2019-02-14T05:20:12.570Z,-1.70
2019-02-14T05:22:41.215Z,-1.60
2019-02-14T05:25:10.427Z,-1.60
2019-02-14T05:27:39.173Z,-1.70
2019-02-14T05:30:18.339Z,-1.70
2019-02-14T05:32:47.014Z,-1.70
2019-02-14T05:35:15.653Z,-1.80
2019-02-14T05:37:44.295Z,-1.80
2019-02-14T05:40:12.970Z,-1.90
2019-02-14T05:42:41.533Z,-1.90
2019-02-14T05:45:11.963Z,-2.00
2019-02-14T05:47:40.686Z,-2.00
2019-02-14T05:50:11.531Z,-1.90
2019-02-14T05:52:40.242Z,-1.90
2019-02-14T05:55:11.293Z,-1.90
2019-02-14T05:57:39.998Z,-2.00
2019-02-14T06:00:18.199Z,-2.10
2019-02-14T06:02:46.838Z,-2.10
2019-02-14T06:05:15.578Z,-2.10
2019-02-14T06:07:44.299Z,-2.10
2019-02-14T06:10:13.069Z,-2.20
2019-02-14T06:12:41.703Z,-2.30
2019-02-14T06:15:12.147Z,-2.30
2019-02-14T06:17:40.707Z,-2.30
2019-02-14T06:20:12.996Z,-2.30
2019-02-14T06:22:41.638Z,-2.30
2019-02-14T06:25:11.880Z,-2.30
2019-02-14T06:27:40.521Z,-2.20
2019-02-14T06:30:14.105Z,-2.30
2019-02-14T06:32:42.825Z,-2.20
2019-02-14T06:35:11.965Z,-2.20
2019-02-14T06:37:40.677Z,-2.20
2019-02-14T06:40:14.213Z,-2.20
2019-02-14T06:42:42.813Z,-2.10
2019-02-14T06:45:13.917Z,-2.10
2019-02-14T06:47:42.490Z,-2.10
2019-02-14T06:50:11.230Z,-2.10
2019-02-14T06:52:40.455Z,-2.10
2019-02-14T06:55:09.793Z,-2.10
2019-02-14T06:57:38.490Z,-2.00
2019-02-14T07:00:17.378Z,-2.00
2019-02-14T07:02:46.101Z,-2.00
2019-02-14T07:05:14.906Z,-2.00
2019-02-14T07:07:43.586Z,-2.00
2019-02-14T07:10:13.197Z,-2.00
2019-02-14T07:12:41.798Z,-2.00
2019-02-14T07:15:12.506Z,-1.90
2019-02-14T07:17:41.108Z,-1.80
2019-02-14T07:20:12.694Z,-1.80
2019-02-14T07:22:41.562Z,-1.70
2019-02-14T07:25:31.036Z,-1.60
2019-02-14T07:27:59.714Z,-1.50
2019-02-14T07:30:28.643Z,-1.30
2019-02-14T07:32:58.740Z,-1.20
2019-02-14T07:35:27.462Z,-1.00
2019-02-14T07:37:56.217Z,-0.90
2019-02-14T07:40:24.931Z,-0.70
2019-02-14T07:42:53.648Z,-0.60
2019-02-14T07:45:22.465Z,-0.40
2019-02-14T07:47:51.032Z,-0.30
2019-02-14T07:50:19.708Z,-0.20
2019-02-14T07:52:48.346Z,-0.10
2019-02-14T07:55:17.140Z,-0.10
2019-02-14T07:57:45.784Z,-0.10
2019-02-14T08:00:19.342Z,-0.10
2019-02-14T08:02:47.930Z,-0.10
2019-02-14T08:05:16.669Z,0.00
2019-02-14T08:07:45.295Z,0.00
2019-02-14T08:10:18.439Z,0.00
2019-02-14T08:12:47.079Z,0.10
2019-02-14T08:15:15.831Z,0.30
2019-02-14T08:17:44.544Z,0.50
2019-02-14T08:20:21.598Z,0.70
2019-02-14T08:25:18.584Z,1.40
2019-02-14T08:27:47.158Z,2.60
2019-02-14T08:30:20.606Z,3.50
2019-02-14T08:32:49.252Z,3.80
2019-02-14T08:35:17.946Z,3.80
2019-02-14T08:37:46.538Z,3.80
2019-02-14T08:40:18.191Z,3.70
2019-02-14T08:42:46.896Z,3.60
2019-02-14T08:45:15.530Z,3.40
2019-02-14T08:47:44.274Z,3.10
2019-02-14T08:50:13.000Z,3.00
2019-02-14T08:52:41.651Z,2.90
2019-02-14T08:55:10.862Z,2.70
2019-02-14T08:57:39.601Z,2.60
2019-02-14T09:00:16.325Z,2.50
2019-02-14T09:02:45.002Z,2.40
2019-02-14T09:05:13.715Z,2.40
2019-02-14T09:07:42.390Z,2.40
2019-02-14T09:10:16.582Z,2.60
2019-02-14T09:12:45.244Z,2.70
2019-02-14T09:15:14.839Z,3.00
2019-02-14T09:17:43.527Z,3.40
2019-02-14T09:20:17.027Z,3.60
2019-02-14T09:22:45.693Z,3.90
2019-02-14T09:25:14.396Z,3.80
2019-02-14T09:27:42.993Z,3.60
2019-02-14T09:30:13.800Z,3.50
2019-02-14T09:32:42.621Z,3.60
2019-02-14T09:35:11.271Z,3.80
2019-02-14T09:37:39.880Z,4.60
2019-02-14T09:40:13.496Z,6.30
2019-02-14T09:42:42.244Z,7.40
2019-02-14T09:45:12.947Z,7.90
2019-02-14T09:47:41.583Z,8.50
2019-02-14T09:50:14.940Z,8.80
2019-02-14T09:52:43.647Z,8.70
2019-02-14T09:55:13.586Z,8.50
2019-02-14T09:57:42.317Z,8.60
2019-02-14T10:00:13.769Z,8.50
2019-02-14T10:02:42.448Z,8.00
2019-02-14T10:05:11.577Z,8.00
2019-02-14T10:07:40.218Z,8.00
2019-02-14T10:10:12.082Z,7.80
2019-02-14T10:12:40.742Z,7.50
2019-02-14T10:15:10.762Z,7.40
2019-02-14T10:17:39.494Z,7.00
2019-02-14T10:20:11.145Z,6.70
2019-02-14T10:22:39.820Z,6.70
2019-02-14T10:25:08.625Z,6.70
2019-02-14T10:27:37.232Z,6.80
2019-02-14T10:30:08.867Z,6.90
2019-02-14T10:32:37.532Z,6.90
2019-02-14T10:35:06.836Z,6.90
2019-02-14T10:37:35.507Z,6.80
2019-02-14T10:40:06.279Z,6.80
2019-02-14T10:42:34.882Z,6.80
2019-02-14T10:45:04.500Z,6.80
2019-02-14T10:47:33.095Z,6.70
2019-02-14T10:50:01.805Z,6.60
2019-02-14T10:52:30.468Z,6.60
2019-02-14T10:54:59.150Z,6.50
2019-02-14T10:57:27.783Z,6.40
2019-02-14T10:59:56.455Z,6.40
2019-02-14T11:02:25.019Z,6.40
2019-02-14T11:04:53.750Z,6.40
2019-02-14T11:07:22.459Z,6.50
2019-02-14T11:09:51.050Z,6.50
2019-02-14T11:12:21.753Z,6.40
2019-02-14T11:14:50.067Z,6.50
2019-02-14T11:17:18.710Z,6.50
2019-02-14T11:19:47.316Z,6.40
2019-02-14T11:22:15.873Z,6.40
2019-02-14T11:24:44.463Z,6.50
2019-02-14T11:27:13.131Z,6.40
2019-02-14T11:29:41.806Z,6.60
2019-02-14T11:32:10.456Z,6.80
2019-02-14T11:34:38.982Z,6.90
2019-02-14T11:37:07.736Z,7.10
2019-02-14T11:39:36.375Z,7.30
2019-02-14T11:42:05.134Z,8.10
2019-02-14T11:44:39.609Z,8.80
2019-02-14T11:47:04.247Z,9.60
2019-02-14T11:49:32.972Z,10.50
2019-02-14T11:52:01.571Z,11.10
2019-02-14T11:54:30.207Z,12.00
2019-02-14T11:56:58.814Z,13.00
2019-02-14T11:59:27.577Z,13.10
2019-02-14T12:01:56.455Z,12.90
2019-02-14T12:04:25.021Z,12.60
2019-02-14T12:06:53.869Z,12.10
2019-02-14T12:09:22.451Z,11.80
2019-02-14T12:11:51.065Z,11.60
2019-02-14T12:14:19.687Z,12.10
2019-02-14T12:16:48.458Z,12.70
2019-02-14T12:19:17.020Z,13.30
2019-02-14T12:21:45.621Z,14.00
2019-02-14T12:24:14.192Z,13.60
2019-02-14T12:26:42.793Z,12.70
2019-02-14T12:29:11.362Z,12.10
2019-02-14T12:31:40.018Z,11.90
2019-02-14T12:34:08.650Z,12.00
2019-02-14T12:36:37.336Z,12.10
2019-02-14T12:41:36.899Z,12.00
2019-02-14T12:44:05.467Z,11.80
2019-02-14T12:46:34.076Z,11.90
2019-02-14T12:49:02.712Z,12.10
2019-02-14T12:51:31.315Z,12.20
2019-02-14T12:54:00.028Z,11.90
2019-02-14T12:56:28.818Z,11.60
2019-02-14T12:58:57.469Z,11.10
2019-02-14T13:01:26.135Z,10.80
2019-02-14T13:03:54.779Z,10.50
2019-02-14T13:06:23.418Z,10.60
2019-02-14T13:08:52.092Z,10.40
2019-02-14T13:11:20.771Z,10.40
2019-02-14T13:13:50.603Z,10.60
2019-02-14T13:16:19.544Z,11.00
2019-02-14T13:18:48.209Z,11.40
2019-02-14T13:21:16.861Z,11.40
2019-02-14T13:23:45.435Z,11.50
2019-02-14T13:26:14.179Z,11.80
2019-02-14T13:28:42.920Z,12.00
2019-02-14T13:31:11.636Z,12.20
2019-02-14T13:33:40.491Z,12.30
2019-02-14T13:36:09.284Z,12.40
2019-02-14T13:38:38.032Z,12.50
2019-02-14T13:41:06.731Z,12.80
2019-02-14T13:43:35.407Z,13.00
2019-02-14T13:46:04.050Z,13.30
2019-02-14T13:48:32.649Z,13.60
2019-02-14T13:51:01.291Z,13.70
2019-02-14T13:53:29.887Z,13.70
2019-02-14T13:55:58.531Z,13.80
2019-02-14T13:58:27.246Z,13.70
2019-02-14T14:00:55.848Z,13.70
2019-02-14T14:03:24.553Z,13.10
2019-02-14T14:05:53.147Z,12.50
2019-02-14T14:08:21.723Z,12.30
2019-02-14T14:10:50.387Z,12.20
2019-02-14T14:13:19.030Z,12.20
2019-02-14T14:15:47.702Z,12.00
2019-02-14T14:18:16.283Z,11.70
2019-02-14T14:20:44.866Z,11.60
2019-02-14T14:23:13.451Z,11.50
2019-02-14T14:25:42.018Z,11.60
2019-02-14T14:28:10.686Z,11.90
2019-02-14T14:30:39.259Z,12.10
2019-02-14T14:33:07.929Z,12.00
2019-02-14T14:35:36.641Z,12.00
2019-02-14T14:38:05.384Z,12.10
2019-02-14T14:40:33.945Z,12.20
2019-02-14T14:43:10.010Z,12.20
2019-02-14T14:45:56.610Z,12.00
2019-02-14T14:48:26.918Z,11.70
2019-02-14T14:50:55.635Z,11.50
2019-02-14T14:53:24.304Z,11.20
2019-02-14T14:55:52.938Z,11.00
2019-02-14T14:58:21.658Z,10.80
2019-02-14T15:00:50.324Z,10.60
2019-02-14T15:03:19.009Z,10.40
2019-02-14T15:05:47.639Z,10.20
2019-02-14T15:08:16.217Z,10.10
2019-02-14T15:10:44.882Z,9.90
2019-02-14T15:13:13.483Z,9.80
2019-02-14T15:15:42.114Z,9.60
2019-02-14T15:18:10.682Z,9.50
2019-02-14T15:20:39.334Z,9.40
2019-02-14T15:23:08.071Z,9.20
2019-02-14T15:25:36.723Z,9.10
2019-02-14T15:28:05.430Z,8.90
2019-02-14T15:30:34.022Z,8.80
2019-02-14T15:33:02.692Z,8.60
2019-02-14T15:35:31.396Z,8.50
2019-02-14T15:37:59.967Z,8.30
2019-02-14T15:40:28.570Z,8.20
2019-02-14T15:42:59.174Z,8.00
2019-02-14T15:45:27.741Z,7.80
2019-02-14T15:47:56.309Z,7.60
2019-02-14T15:50:24.979Z,7.50
2019-02-14T15:52:54.680Z,7.30
2019-02-14T15:55:24.308Z,7.10
2019-02-14T15:57:53.093Z,6.90
2019-02-14T16:00:22.817Z,6.70
2019-02-14T16:02:52.539Z,6.60
2019-02-14T16:05:21.285Z,6.40
2019-02-14T16:07:49.914Z,6.30
2019-02-14T16:10:19.028Z,6.10
2019-02-14T16:12:47.919Z,6.00
2019-02-14T16:15:16.485Z,5.90
2019-02-14T16:17:45.077Z,5.70
2019-02-14T16:20:15.385Z,5.60
2019-02-14T16:22:44.830Z,5.50
2019-02-14T16:25:13.534Z,5.40
2019-02-14T16:27:42.205Z,5.30
2019-02-14T16:30:11.610Z,5.20
2019-02-14T16:32:40.223Z,5.10
2019-02-14T16:35:08.936Z,5.00
2019-02-14T16:37:37.695Z,4.90
2019-02-14T16:40:09.303Z,4.80
2019-02-14T16:42:38.043Z,4.70
2019-02-14T16:45:08.444Z,4.60
2019-02-14T16:47:37.188Z,4.50
2019-02-14T16:50:08.569Z,4.40
2019-02-14T16:52:37.302Z,4.40
2019-02-14T16:55:07.786Z,4.30
2019-02-14T16:57:36.477Z,4.20
2019-02-14T17:00:08.327Z,4.10
2019-02-14T17:02:36.893Z,4.10
2019-02-14T17:05:05.926Z,4.00
2019-02-14T17:07:34.757Z,3.90
2019-02-14T17:10:03.983Z,3.90
2019-02-14T17:12:32.704Z,3.70
2019-02-14T17:15:01.452Z,3.70
2019-02-14T17:17:32.294Z,3.60
2019-02-14T17:20:01.902Z,3.50
2019-02-14T17:22:30.470Z,3.40
2019-02-14T17:24:59.631Z,3.40
2019-02-14T17:27:28.611Z,3.40
2019-02-14T17:29:57.363Z,3.30
2019-02-14T17:32:26.062Z,3.30
2019-02-14T17:34:54.962Z,3.30
2019-02-14T17:37:23.654Z,3.30
2019-02-14T17:39:52.326Z,3.30
2019-02-14T17:42:21.874Z,3.20
2019-02-14T17:44:50.507Z,3.20
2019-02-14T17:47:19.251Z,3.20
2019-02-14T17:49:47.806Z,3.10
2019-02-14T17:52:16.553Z,3.10
2019-02-14T17:54:45.258Z,3.10
2019-02-14T17:57:13.962Z,3.00
2019-02-14T17:59:42.630Z,3.00
2019-02-14T18:02:11.259Z,3.00
2019-02-14T18:04:39.927Z,2.90
2019-02-14T18:07:08.572Z,2.80
2019-02-14T18:09:37.315Z,2.80
2019-02-14T18:12:06.018Z,2.70
2019-02-14T18:14:34.760Z,2.70
2019-02-14T18:17:03.466Z,2.60
2019-02-14T18:19:32.132Z,2.60
2019-02-14T18:22:00.702Z,2.50
2019-02-14T18:24:29.298Z,2.50
2019-02-14T18:26:57.934Z,2.50
2019-02-14T18:29:26.530Z,2.40
2019-02-14T18:31:55.114Z,2.40
2019-02-14T18:34:23.858Z,2.30
2019-02-14T18:36:52.524Z,2.30
2019-02-14T18:39:21.123Z,2.20
2019-02-14T18:41:50.116Z,2.10
2019-02-14T18:44:18.706Z,2.10
2019-02-14T18:46:47.388Z,2.00
2019-02-14T18:49:16.582Z,2.00
2019-02-14T18:51:45.555Z,1.90
2019-02-14T18:54:14.289Z,1.80
2019-02-14T18:56:42.936Z,1.80
2019-02-14T18:59:11.606Z,1.70
2019-02-14T19:01:40.266Z,1.70
2019-02-14T19:04:08.865Z,1.70
2019-02-14T19:06:37.437Z,1.60
2019-02-14T19:09:08.001Z,1.60
2019-02-14T19:11:37.947Z,1.60
2019-02-14T19:14:06.672Z,1.50
2019-02-14T19:16:35.395Z,1.50
2019-02-14T19:19:04.159Z,1.50
2019-02-14T19:21:32.779Z,1.40
2019-02-14T19:24:01.506Z,1.40
2019-02-14T19:26:30.130Z,1.40
2019-02-14T19:28:58.980Z,1.40
2019-02-14T19:31:27.691Z,1.40
2019-02-14T19:33:56.447Z,1.30
2019-02-14T19:36:28.107Z,1.30
2019-02-14T19:38:56.734Z,1.30
2019-02-14T19:41:25.779Z,1.30
2019-02-14T19:43:54.797Z,1.20
2019-02-14T19:46:23.450Z,1.20
2019-02-14T19:48:52.095Z,1.10
2019-02-14T19:51:20.835Z,1.10
2019-02-14T19:53:49.473Z,1.00
2019-02-14T19:56:18.465Z,1.00
2019-02-14T19:58:47.167Z,1.00
2019-02-14T20:01:15.827Z,0.90
2019-02-14T20:03:44.643Z,0.90
2019-02-14T20:06:13.319Z,0.90
2019-02-14T20:08:41.970Z,0.90
2019-02-14T20:11:10.642Z,0.80
2019-02-14T20:13:39.261Z,0.80
2019-02-14T20:16:07.937Z,0.80
2019-02-14T20:18:36.574Z,0.80
2019-02-14T20:21:05.800Z,0.80
2019-02-14T20:23:36.240Z,0.70
2019-02-14T20:26:05.783Z,0.70
2019-02-14T20:28:34.402Z,0.60
2019-02-14T20:31:03.130Z,0.60
2019-02-14T20:33:31.730Z,0.60
2019-02-14T20:36:00.423Z,0.50
2019-02-14T20:38:29.093Z,0.50
2019-02-14T20:40:57.718Z,0.50
2019-02-14T20:43:26.483Z,0.50
2019-02-14T20:45:56.606Z,0.40
2019-02-14T20:48:26.443Z,0.40
2019-02-14T20:50:55.862Z,0.40
2019-02-14T20:53:25.301Z,0.40
2019-02-14T20:55:54.076Z,0.40
2019-02-14T20:58:23.058Z,0.30
2019-02-14T21:00:51.887Z,0.30
2019-02-14T21:03:20.882Z,0.30
2019-02-14T21:05:51.388Z,0.30
2019-02-14T21:08:23.494Z,0.20
2019-02-14T21:10:52.278Z,0.20
2019-02-14T21:13:20.993Z,0.20
2019-02-14T21:15:51.666Z,0.10
2019-02-14T21:18:20.342Z,0.10
2019-02-14T21:20:49.018Z,0.10
2019-02-14T21:23:17.942Z,0.00
2019-02-14T21:25:47.250Z,0.00
2019-02-14T21:28:17.164Z,0.00
2019-02-14T21:30:45.795Z,-0.10
2019-02-14T21:33:14.417Z,-0.10
2019-02-14T21:35:42.990Z,-0.10
2019-02-14T21:38:11.735Z,-0.10
2019-02-14T21:40:46.083Z,-0.10
2019-02-14T21:43:14.839Z,-0.10
2019-02-14T21:45:43.586Z,-0.10
2019-02-14T21:48:12.304Z,-0.10
2019-02-14T21:50:41.006Z,-0.10
2019-02-14T21:53:12.140Z,-0.20
2019-02-14T21:55:40.936Z,-0.20
2019-02-14T21:58:09.594Z,-0.20
2019-02-14T22:00:38.301Z,-0.20
2019-02-14T22:03:06.889Z,-0.20
2019-02-14T22:05:35.460Z,-0.20
2019-02-14T22:08:04.130Z,-0.20
2019-02-14T22:10:32.739Z,-0.30
2019-02-14T22:13:01.304Z,-0.30
2019-02-14T22:15:30.341Z,-0.30
2019-02-14T22:17:59.141Z,-0.40
2019-02-14T22:20:27.850Z,-0.40
2019-02-14T22:22:56.514Z,-0.40
2019-02-14T22:25:25.153Z,-0.40
2019-02-14T22:27:53.934Z,-0.40
2019-02-14T22:30:22.666Z,-0.50
2019-02-14T22:32:51.373Z,-0.50
2019-02-14T22:35:20.142Z,-0.50
2019-02-14T22:37:48.852Z,-0.60
2019-02-14T22:40:17.586Z,-0.50
2019-02-14T22:42:47.666Z,-0.60
2019-02-14T22:45:16.617Z,-0.60
2019-02-14T22:47:45.377Z,-0.60
2019-02-14T22:50:14.384Z,-0.60
2019-02-14T22:52:43.333Z,-0.60
2019-02-14T22:55:14.881Z,-0.60
2019-02-14T22:57:43.730Z,-0.60
2019-02-14T23:00:34.031Z,-0.70
2019-02-14T23:03:03.110Z,-0.70
2019-02-14T23:05:32.023Z,-0.70
2019-02-14T23:08:01.156Z,-0.70
2019-02-14T23:10:30.399Z,-0.70
2019-02-14T23:12:59.068Z,-0.70
2019-02-14T23:15:27.836Z,-0.70
2019-02-14T23:17:56.509Z,-0.70
2019-02-14T23:20:25.323Z,-0.70
2019-02-14T23:22:54.014Z,-0.70
2019-02-14T23:25:22.763Z,-0.70
2019-02-14T23:27:51.472Z,-0.70
2019-02-14T23:30:20.467Z,-0.70
2019-02-14T23:32:49.055Z,-0.70
2019-02-14T23:35:17.657Z,-0.70
2019-02-14T23:37:46.646Z,-0.80
2019-02-14T23:40:15.314Z,-0.80
2019-02-14T23:42:44.030Z,-0.80
2019-02-14T23:45:12.771Z,-0.90
2019-02-14T23:47:44.675Z,-0.90
2019-02-14T23:50:13.409Z,-0.90
2019-02-14T23:52:42.523Z,-0.90
2019-02-14T23:55:12.560Z,-0.90
2019-02-14T23:57:41.537Z,-0.90
